| time (UTC) | temp F | wind direction | speed knots | gust knots | rain 1hr in | rain 24hr in | rain mn in | humidity % | barometer mb |
| 20260507211010 | 63 | 354 | 1.7 | 7.0 | 0.00 | 0.06 | 0.00 | 33 | 1004.2 |
| 20260507210509 | 63 | 0 | 0.9 | 7.0 | 0.00 | 0.06 | 0.00 | 32 | 1004.0 |
| 20260507210031 | 62 | 0 | 0.0 | 7.0 | 0.00 | 0.06 | 0.00 | 34 | 1004.0 |
| 20260507205512 | 61 | 0 | 0.9 | 7.8 | 0.00 | 0.12 | 0.00 | 35 | 1004.0 |
| 20260507205009 | 61 | 0 | 1.7 | 10.4 | 0.00 | 0.12 | 0.00 | 32 | 1004.0 |
| 20260507204529 | 62 | 296 | 0.9 | 10.4 | 0.00 | 0.12 | 0.00 | 32 | 1003.8 |
| 20260507204014 | 62 | 260 | 3.5 | 10.4 | 0.00 | 0.12 | 0.00 | 31 | 1003.8 |
| 20260507203516 | 63 | 243 | 5.2 | 10.4 | 0.00 | 0.12 | 0.00 | 28 | 1003.9 |
| 20260507203032 | 65 | 268 | 3.5 | 9.6 | 0.00 | 0.12 | 0.00 | 29 | 1003.9 |
| 20260507202511 | 64 | 349 | 2.6 | 8.7 | 0.00 | 0.12 | 0.00 | 36 | 1003.9 |
| 20260507202014 | 63 | 246 | 3.5 | 8.7 | 0.00 | 0.12 | 0.00 | 31 | 1003.9 |
| 20260507201532 | 64 | 247 | 3.5 | 6.1 | 0.00 | 0.12 | 0.00 | 31 | 1003.9 |
| 20260507201008 | 64 | 335 | 1.7 | 11.3 | 0.00 | 0.12 | 0.00 | 30 | 1004.0 |
| 20260507200510 | 65 | 0 | 0.9 | 11.3 | 0.00 | 0.12 | 0.00 | 31 | 1004.2 |
| 20260507200034 | 64 | 289 | 3.5 | 11.3 | 0.00 | 0.12 | 0.00 | 34 | 1004.1 |
| 20260507195510 | 64 | 0 | 0.9 | 8.7 | 0.00 | 0.16 | 0.00 | 36 | 1004.2 |
| 20260507195014 | 64 | 286 | 2.6 | 8.7 | 0.00 | 0.16 | 0.00 | 32 | 1004.1 |
| 20260507194546 | 64 | 0 | 0.0 | 7.0 | 0.00 | 0.16 | 0.00 | 36 | 1004.1 |
| 20260507194008 | 63 | 0 | 0.0 | 7.0 | 0.00 | 0.16 | 0.00 | 38 | 1004.3 |
| 20260507193516 | 63 | 250 | 0.9 | 7.0 | 0.00 | 0.16 | 0.00 | 36 | 1004.3 |
| 20260507193030 | 64 | 359 | 1.7 | 8.7 | 0.00 | 0.16 | 0.00 | 37 | 1004.3 |
| 20260507192511 | 65 | 345 | 3.5 | 8.7 | 0.00 | 0.16 | 0.00 | 34 | 1004.3 |
| 20260507192012 | 66 | 0 | 0.0 | 0.0 | 0.00 | 0.16 | 0.00 | 34 | 1004.2 |
| 20260507191528 | 66 | 0 | 0.0 | 4.3 | 0.00 | 0.16 | 0.00 | 39 | 1004.3 |
| 20260507191014 | 65 | 0 | 0.0 | 7.8 | 0.00 | 0.16 | 0.00 | 34 | 1004.3 |
| 20260507190509 | 64 | 338 | 1.7 | 7.8 | 0.00 | 0.16 | 0.00 | 34 | 1004.6 |
| 20260507190042 | 65 | 303 | 4.3 | 7.8 | 0.00 | 0.16 | 0.00 | 36 | 1004.7 |
| 20260507185511 | 64 | 326 | 1.7 | 7.8 | 0.00 | 0.32 | 0.00 | 35 | 1004.5 |
| 20260507185013 | 63 | 353 | 0.0 | 13.9 | 0.00 | 0.32 | 0.00 | 36 | 1004.5 |
| 20260507184541 | 63 | 274 | 2.6 | 14.8 | 0.00 | 0.32 | 0.00 | 36 | 1004.6 |
| 20260507184008 | 64 | 250 | 4.3 | 14.8 | 0.00 | 0.32 | 0.00 | 34 | 1004.5 |
| 20260507183719 | 65 | 257 | 4.3 | 8.7 | 0.00 | 0.32 | 0.00 | 35 | 1004.6 |
| 20260507182507 | 65 | 0 | 0.0 | 0.0 | 0.00 | 0.32 | 0.00 | 39 | 1004.7 |
| 20260507182015 | 64 | 0 | 0.0 | 0.0 | 0.00 | 0.32 | 0.00 | 37 | 1004.7 |
| 20260507181531 | 64 | 0 | 0.0 | 0.0 | 0.00 | 0.32 | 0.00 | 37 | 1004.7 |
| 20260507181010 | 64 | 0 | 0.0 | 0.0 | 0.00 | 0.32 | 0.00 | 34 | 1004.7 |
| 20260507180511 | 64 | 0 | 0.0 | 6.1 | 0.00 | 0.32 | 0.00 | 35 | 1004.6 |
| 20260507180029 | 64 | 0 | 1.7 | 6.1 | 0.00 | 0.32 | 0.00 | 37 | 1004.7 |
| 20260507175510 | 64 | 0 | 0.0 | 4.3 | 0.00 | 0.32 | 0.00 | 40 | 1004.6 |
| 20260507175010 | 64 | 0 | 0.0 | 7.8 | 0.00 | 0.32 | 0.00 | 36 | 1004.7 |
| 20260507174533 | 64 | 266 | 2.6 | 7.8 | 0.00 | 0.32 | 0.00 | 41 | 1004.6 |
| 20260507174011 | 63 | 236 | 1.7 | 7.8 | 0.00 | 0.32 | 0.00 | 39 | 1004.5 |
| 20260507173517 | 63 | 323 | 1.7 | 8.7 | 0.00 | 0.32 | 0.00 | 43 | 1004.6 |
| 20260507173043 | 62 | 334 | 3.5 | 8.7 | 0.00 | 0.32 | 0.00 | 40 | 1004.6 |
| 20260507172509 | 62 | 323 | 1.7 | 8.7 | 0.00 | 0.32 | 0.00 | 45 | 1004.7 |
| 20260507172009 | 62 | 260 | 2.6 | 10.4 | 0.00 | 0.32 | 0.00 | 39 | 1004.7 |
| 20260507171530 | 62 | 224 | 3.5 | 10.4 | 0.00 | 0.32 | 0.00 | 40 | 1004.8 |
| 20260507171009 | 62 | 0 | 2.6 | 7.0 | 0.00 | 0.32 | 0.00 | 44 | 1004.8 |
| 20260507170511 | 62 | 330 | 2.6 | 8.7 | 0.00 | 0.32 | 0.00 | 44 | 1004.9 |
| 20260507170031 | 60 | 353 | 3.5 | 8.7 | 0.00 | 0.32 | 0.00 | 51 | 1005.0 |
| 20260507165512 | 59 | 0 | 1.7 | 8.7 | 0.00 | 0.32 | 0.00 | 45 | 1005.1 |
| 20260507165013 | 59 | 0 | 0.0 | 10.4 | 0.00 | 0.32 | 0.00 | 48 | 1005.2 |
| 20260507164544 | 58 | 0 | 3.5 | 10.4 | 0.00 | 0.32 | 0.00 | 48 | 1005.1 |
| 20260507164011 | 58 | 239 | 3.5 | 7.0 | 0.00 | 0.32 | 0.00 | 50 | 1005.2 |
| 20260507163512 | 57 | 0 | 0.9 | 10.4 | 0.00 | 0.32 | 0.00 | 53 | 1005.4 |
| 20260507163031 | 57 | 255 | 2.6 | 10.4 | 0.00 | 0.32 | 0.00 | 56 | 1005.4 |
| 20260507162508 | 58 | 262 | 1.7 | 7.8 | 0.00 | 0.32 | 0.00 | 53 | 1005.4 |
| 20260507162016 | 58 | 252 | 1.7 | 7.8 | 0.00 | 0.32 | 0.00 | 54 | 1005.4 |
| 20260507161528 | 59 | 317 | 3.5 | 7.8 | 0.00 | 0.32 | 0.00 | 53 | 1005.4 |
| 20260507161010 | 59 | 0 | 0.9 | 6.1 | 0.00 | 0.32 | 0.00 | 56 | 1005.4 |
| 20260507160512 | 58 | 242 | 1.7 | 7.0 | 0.00 | 0.32 | 0.00 | 56 | 1005.5 |
| 20260507160030 | 58 | 339 | 2.6 | 7.0 | 0.00 | 0.32 | 0.00 | 59 | 1005.6 |
| 20260507155510 | 58 | 264 | 1.7 | 7.8 | 0.00 | 0.32 | 0.00 | 56 | 1005.8 |
| 20260507155014 | 57 | 278 | 3.5 | 7.8 | 0.00 | 0.32 | 0.00 | 55 | 1005.8 |
| 20260507154532 | 57 | 309 | 2.6 | 8.7 | 0.00 | 0.32 | 0.00 | 57 | 1005.9 |
| 20260507154013 | 57 | 251 | 3.5 | 8.7 | 0.00 | 0.32 | 0.00 | 53 | 1005.8 |
| 20260507153513 | 58 | 261 | 1.7 | 8.7 | 0.00 | 0.32 | 0.00 | 54 | 1005.9 |
| 20260507153036 | 58 | 259 | 2.6 | 8.7 | 0.00 | 0.32 | 0.00 | 54 | 1006.0 |
| 20260507152511 | 59 | 255 | 3.5 | 8.7 | 0.00 | 0.32 | 0.00 | 54 | 1006.1 |
| 20260507152010 | 59 | 0 | 0.9 | 7.0 | 0.00 | 0.32 | 0.00 | 55 | 1006.1 |
| 20260507151532 | 60 | 302 | 2.6 | 7.0 | 0.00 | 0.32 | 0.00 | 55 | 1006.1 |
| 20260507151009 | 59 | 157 | 0.9 | 7.0 | 0.00 | 0.32 | 0.00 | 56 | 1006.1 |
| 20260507150509 | 58 | 329 | 1.7 | 6.1 | 0.00 | 0.32 | 0.00 | 55 | 1006.1 |
| 20260507150033 | 58 | 326 | 1.7 | 6.1 | 0.00 | 0.32 | 0.00 | 55 | 1006.0 |
| 20260507145512 | 58 | 339 | 2.6 | 11.3 | 0.00 | 0.32 | 0.00 | 58 | 1006.2 |
| 20260507145016 | 58 | 266 | 5.2 | 11.3 | 0.00 | 0.32 | 0.00 | 54 | 1006.2 |
| 20260507144534 | 59 | 0 | 3.5 | 8.7 | 0.00 | 0.32 | 0.00 | 53 | 1006.2 |
| 20260507144009 | 59 | 256 | 2.6 | 7.0 | 0.00 | 0.32 | 0.00 | 54 | 1006.0 |
| 20260507143512 | 59 | 337 | 2.6 | 7.0 | 0.00 | 0.32 | 0.00 | 55 | 1006.1 |
| 20260507143036 | 59 | 349 | 3.5 | 7.0 | 0.00 | 0.32 | 0.00 | 58 | 1006.0 |
| 20260507142509 | 59 | 295 | 0.9 | 10.4 | 0.00 | 0.32 | 0.00 | 57 | 1006.0 |
| 20260507142008 | 59 | 0 | 0.0 | 10.4 | 0.00 | 0.32 | 0.00 | 59 | 1006.1 |
| 20260507141534 | 59 | 266 | 1.7 | 10.4 | 0.00 | 0.32 | 0.00 | 54 | 1006.0 |
| 20260507141009 | 59 | 0 | 0.9 | 7.8 | 0.00 | 0.32 | 0.00 | 57 | 1006.1 |
| 20260507140512 | 58 | 342 | 1.7 | 9.6 | 0.00 | 0.32 | 0.00 | 58 | 1005.9 |
| 20260507140030 | 58 | 245 | 1.7 | 9.6 | 0.00 | 0.32 | 0.00 | 57 | 1006.0 |
| 20260507135509 | 58 | 310 | 0.9 | 6.1 | 0.00 | 0.32 | 0.00 | 59 | 1006.0 |
| 20260507135015 | 57 | 347 | 2.6 | 6.1 | 0.00 | 0.32 | 0.00 | 59 | 1006.0 |
| 20260507134531 | 57 | 238 | 2.6 | 6.1 | 0.00 | 0.32 | 0.00 | 54 | 1006.1 |
| 20260507134009 | 58 | 238 | 0.9 | 6.1 | 0.00 | 0.32 | 0.00 | 53 | 1006.1 |
| 20260507133511 | 58 | 351 | 0.9 | 6.1 | 0.00 | 0.32 | 0.00 | 60 | 1006.1 |
| 20260507133031 | 58 | 351 | 2.6 | 5.2 | 0.00 | 0.32 | 0.00 | 61 | 1006.2 |
| 20260507132509 | 57 | 0 | 2.6 | 5.2 | 0.00 | 0.32 | 0.00 | 62 | 1006.2 |
| 20260507132009 | 56 | 0 | 0.9 | 5.2 | 0.00 | 0.32 | 0.00 | 61 | 1006.4 |
| 20260507131530 | 56 | 0 | 2.6 | 5.2 | 0.00 | 0.32 | 0.00 | 59 | 1006.3 |
| 20260507131013 | 57 | 0 | 0.0 | 2.6 | 0.00 | 0.32 | 0.00 | 63 | 1006.2 |
| 20260507130517 | 56 | 0 | 0.0 | 7.0 | 0.00 | 0.32 | 0.00 | 66 | 1006.3 |
| 20260507130038 | 56 | 0 | 0.0 | 7.0 | 0.00 | 0.32 | 0.00 | 64 | 1006.3 |
| 20260507125510 | 55 | 356 | 3.5 | 7.8 | 0.00 | 0.32 | 0.00 | 67 | 1006.2 |
| 20260507125012 | 54 | 341 | 1.7 | 7.8 | 0.00 | 0.32 | 0.00 | 67 | 1006.4 |
| 20260507124538 | 54 | 357 | 0.9 | 7.8 | 0.00 | 0.32 | 0.00 | 68 | 1006.4 |
| 20260507124013 | 53 | 0 | 1.7 | 7.0 | 0.00 | 0.32 | 0.00 | 70 | 1006.6 |
| 20260507123517 | 52 | 0 | 0.9 | 7.0 | 0.00 | 0.32 | 0.00 | 71 | 1006.5 |
| 20260507123032 | 52 | 333 | 0.0 | 5.2 | 0.00 | 0.32 | 0.00 | 73 | 1006.5 |
| 20260507122509 | 51 | 303 | 0.0 | 4.3 | 0.00 | 0.32 | 0.00 | 74 | 1006.7 |
| 20260507122013 | 51 | 0 | 0.0 | 0.0 | 0.00 | 0.32 | 0.00 | 78 | 1006.7 |
| 20260507121531 | 50 | 0 | 0.0 | 1.7 | 0.00 | 0.32 | 0.00 | 80 | 1006.6 |
| 20260507121012 | 50 | 0 | 0.0 | 1.7 | 0.00 | 0.32 | 0.00 | 81 | 1006.8 |
| 20260507120514 | 49 | 0 | 0.0 | 2.6 | 0.00 | 0.32 | 0.00 | 83 | 1006.6 |
| 20260507120032 | 48 | 0 | 0.0 | 2.6 | 0.00 | 0.32 | 0.00 | 84 | 1006.6 |
| 20260507115509 | 48 | 0 | 0.0 | 0.0 | 0.00 | 0.32 | 0.00 | 85 | 1006.6 |
| 20260507115017 | 48 | 0 | 0.0 | 0.0 | 0.00 | 0.32 | 0.00 | 86 | 1006.6 |
| 20260507114554 | 47 | 0 | 0.0 | 0.0 | 0.00 | 0.32 | 0.00 | 86 | 1006.6 |
| 20260507114014 | 47 | 0 | 0.0 | 0.0 | 0.00 | 0.32 | 0.00 | 86 | 1006.6 |
| 20260507113510 | 47 | 0 | 0.0 | 0.0 | 0.00 | 0.32 | 0.00 | 86 | 1006.6 |
| 20260507113057 | 47 | 0 | 0.0 | 0.0 | 0.00 | 0.32 | 0.00 | 86 | 1006.6 |
| 20260507112510 | 47 | 0 | 0.0 | 0.0 | 0.00 | 0.32 | 0.00 | 86 | 1006.7 |
| 20260507112013 | 47 | 0 | 0.0 | 0.0 | 0.00 | 0.32 | 0.00 | 86 | 1006.5 |
| 20260507111538 | 47 | 0 | 0.0 | 0.0 | 0.00 | 0.32 | 0.00 | 86 | 1006.5 |
| 20260507111010 | 47 | 0 | 0.0 | 0.0 | 0.00 | 0.32 | 0.00 | 87 | 1006.3 |
| 20260507110510 | 47 | 0 | 0.0 | 0.0 | 0.00 | 0.32 | 0.00 | 87 | 1006.3 |
| 20260507110032 | 47 | 0 | 0.0 | 0.0 | 0.00 | 0.32 | 0.00 | 87 | 1006.2 |
| 20260507105511 | 47 | 0 | 0.0 | 0.0 | 0.00 | 0.32 | 0.00 | 87 | 1006.5 |
| 20260507105011 | 47 | 0 | 0.0 | 0.0 | 0.00 | 0.32 | 0.00 | 87 | 1006.5 |
| 20260507104539 | 47 | 0 | 0.0 | 0.0 | 0.00 | 0.32 | 0.00 | 87 | 1006.5 |
| 20260507104010 | 46 | 0 | 0.0 | 0.0 | 0.00 | 0.32 | 0.00 | 86 | 1006.3 |
| 20260507103512 | 46 | 0 | 0.0 | 0.0 | 0.00 | 0.32 | 0.00 | 86 | 1006.5 |
| 20260507103031 | 47 | 0 | 0.0 | 0.0 | 0.00 | 0.32 | 0.00 | 86 | 1006.4 |
| 20260507102510 | 47 | 0 | 0.0 | 0.0 | 0.00 | 0.32 | 0.00 | 86 | 1006.4 |
| 20260507102015 | 47 | 0 | 0.0 | 0.0 | 0.00 | 0.32 | 0.00 | 87 | 1006.2 |
| 20260507101532 | 47 | 0 | 0.0 | 0.0 | 0.00 | 0.32 | 0.00 | 87 | 1006.5 |
| 20260507101010 | 47 | 0 | 0.0 | 0.0 | 0.00 | 0.32 | 0.00 | 86 | 1006.7 |
| 20260507100510 | 47 | 0 | 0.0 | 0.0 | 0.00 | 0.32 | 0.00 | 86 | 1006.7 |
| 20260507100030 | 47 | 0 | 0.0 | 0.0 | 0.00 | 0.32 | 0.00 | 86 | 1006.6 |
| 20260507095510 | 47 | 0 | 0.0 | 0.0 | 0.00 | 0.32 | 0.00 | 86 | 1006.4 |
| 20260507095009 | 47 | 0 | 0.0 | 0.0 | 0.00 | 0.32 | 0.00 | 86 | 1006.5 |
| 20260507094533 | 47 | 0 | 0.0 | 0.0 | 0.00 | 0.32 | 0.00 | 86 | 1006.2 |
| 20260507094009 | 47 | 0 | 0.0 | 0.0 | 0.00 | 0.32 | 0.00 | 86 | 1006.2 |
| 20260507093517 | 47 | 0 | 0.0 | 0.0 | 0.00 | 0.32 | 0.00 | 86 | 1006.2 |
| 20260507093034 | 47 | 0 | 0.0 | 0.0 | 0.00 | 0.32 | 0.00 | 86 | 1006.3 |
| 20260507092515 | 47 | 0 | 0.0 | 0.0 | 0.00 | 0.32 | 0.00 | 86 | 1006.4 |
| 20260507092014 | 47 | 0 | 0.0 | 0.0 | 0.00 | 0.32 | 0.00 | 86 | 1006.3 |
| 20260507091531 | 47 | 0 | 0.0 | 0.0 | 0.00 | 0.32 | 0.00 | 86 | 1006.2 |
| 20260507091010 | 47 | 0 | 0.0 | 2.6 | 0.00 | 0.32 | 0.00 | 86 | 1006.1 |
| 20260507090512 | 47 | 0 | 0.0 | 2.6 | 0.00 | 0.32 | 0.00 | 86 | 1006.1 |
| 20260507090032 | 47 | 312 | 0.0 | 4.3 | 0.00 | 0.32 | 0.00 | 86 | 1005.9 |
| 20260507085509 | 47 | 313 | 0.9 | 4.3 | 0.00 | 0.32 | 0.00 | 86 | 1005.6 |
| 20260507085013 | 47 | 313 | 0.9 | 4.3 | 0.00 | 0.32 | 0.00 | 87 | 1005.8 |
| 20260507084540 | 47 | 0 | 0.0 | 0.0 | 0.00 | 0.32 | 0.00 | 87 | 1005.6 |
| 20260507084011 | 47 | 0 | 0.0 | 4.3 | 0.00 | 0.32 | 0.00 | 87 | 1005.9 |
| 20260507083510 | 47 | 0 | 0.0 | 4.3 | 0.00 | 0.32 | 0.00 | 87 | 1005.7 |
| 20260507083030 | 47 | 311 | 1.7 | 4.3 | 0.00 | 0.32 | 0.00 | 87 | 1005.5 |
| 20260507082513 | 47 | 0 | 0.0 | 3.5 | 0.00 | 0.32 | 0.00 | 87 | 1005.7 |
| 20260507082014 | 48 | 303 | 0.9 | 4.3 | 0.00 | 0.32 | 0.00 | 87 | 1005.4 |
| 20260507081536 | 48 | 303 | 0.9 | 4.3 | 0.00 | 0.32 | 0.00 | 87 | 1005.7 |
| 20260507081011 | 48 | 0 | 0.0 | 3.5 | 0.00 | 0.32 | 0.00 | 87 | 1005.9 |
| 20260507080515 | 48 | 0 | 0.0 | 3.5 | 0.00 | 0.32 | 0.00 | 87 | 1005.9 |
| 20260507080030 | 48 | 0 | 0.0 | 3.5 | 0.00 | 0.32 | 0.00 | 87 | 1005.9 |
| 20260507075512 | 48 | 290 | 0.0 | 4.3 | 0.00 | 0.32 | 0.00 | 87 | 1005.6 |
| 20260507075014 | 48 | 290 | 1.7 | 4.3 | 0.00 | 0.32 | 0.00 | 88 | 1005.5 |
| 20260507074532 | 48 | 288 | 1.7 | 5.2 | 0.00 | 0.32 | 0.00 | 88 | 1005.4 |
| 20260507074009 | 48 | 309 | 1.7 | 7.0 | 0.00 | 0.32 | 0.00 | 88 | 1005.3 |
| 20260507073512 | 48 | 329 | 0.0 | 7.0 | 0.00 | 0.32 | 0.00 | 89 | 1005.4 |
| 20260507073029 | 48 | 295 | 2.6 | 7.0 | 0.00 | 0.32 | 0.00 | 89 | 1005.4 |
| 20260507072515 | 48 | 321 | 1.7 | 5.2 | 0.00 | 0.32 | 0.00 | 89 | 1005.3 |
| 20260507072011 | 48 | 328 | 0.9 | 5.2 | 0.00 | 0.32 | 0.00 | 89 | 1005.4 |
| 20260507071530 | 48 | 329 | 1.7 | 7.8 | 0.00 | 0.32 | 0.00 | 89 | 1005.3 |
| 20260507071013 | 48 | 330 | 1.7 | 7.8 | 0.00 | 0.32 | 0.00 | 89 | 1005.2 |
| 20260507070511 | 48 | 307 | 1.7 | 4.3 | 0.00 | 0.32 | 0.00 | 90 | 1005.2 |
| 20260507070030 | 49 | 297 | 0.0 | 5.2 | 0.00 | 0.32 | 0.00 | 90 | 1005.5 |
| 20260507065510 | 49 | 0 | 0.9 | 5.2 | 0.00 | 0.32 | 0.00 | 90 | 1005.3 |
| 20260507065013 | 49 | 0 | 0.0 | 5.2 | 0.00 | 0.32 | 0.00 | 90 | 1005.4 |
| 20260507064534 | 49 | 0 | 0.9 | 3.5 | 0.00 | 0.32 | 0.00 | 90 | 1004.9 |
| 20260507064012 | 49 | 0 | 0.0 | 3.5 | 0.00 | 0.32 | 0.00 | 90 | 1005.0 |
| 20260507063517 | 49 | 280 | 0.0 | 5.2 | 0.00 | 0.32 | 0.00 | 90 | 1005.0 |
| 20260507063029 | 49 | 0 | 0.0 | 6.1 | 0.00 | 0.32 | 0.00 | 90 | 1005.2 |
| 20260507062511 | 49 | 250 | 1.7 | 7.0 | 0.00 | 0.32 | 0.00 | 89 | 1005.0 |
| 20260507062016 | 49 | 251 | 0.9 | 7.0 | 0.00 | 0.32 | 0.00 | 89 | 1005.0 |
| 20260507061532 | 49 | 250 | 1.7 | 6.1 | 0.00 | 0.32 | 0.00 | 89 | 1005.2 |
| 20260507061010 | 49 | 253 | 1.7 | 7.0 | 0.00 | 0.32 | 0.00 | 89 | 1005.4 |
| 20260507060509 | 49 | 237 | 1.7 | 7.0 | 0.00 | 0.32 | 0.00 | 90 | 1005.3 |
| 20260507060033 | 49 | 250 | 0.9 | 4.3 | 0.00 | 0.32 | 0.00 | 90 | 1005.1 |
| 20260507055509 | 49 | 251 | 0.9 | 5.2 | 0.00 | 0.32 | 0.00 | 90 | 1005.1 |
| 20260507055018 | 49 | 252 | 0.9 | 5.2 | 0.00 | 0.32 | 0.00 | 90 | 1005.0 |
| 20260507054531 | 49 | 0 | 0.9 | 6.1 | 0.00 | 0.32 | 0.00 | 90 | 1004.8 |
| 20260507054010 | 50 | 0 | 1.7 | 7.0 | 0.00 | 0.32 | 0.00 | 90 | 1004.9 |
| 20260507053511 | 50 | 248 | 1.7 | 7.0 | 0.00 | 0.32 | 0.00 | 90 | 1004.9 |
| 20260507053031 | 50 | 0 | 1.7 | 5.2 | 0.00 | 0.32 | 0.00 | 90 | 1005.0 |
| 20260507052511 | 50 | 245 | 2.6 | 5.2 | 0.00 | 0.32 | 0.00 | 90 | 1005.2 |
| 20260507052011 | 50 | 245 | 0.9 | 6.1 | 0.00 | 0.32 | 0.00 | 90 | 1004.9 |
| 20260507051533 | 50 | 244 | 2.6 | 6.1 | 0.00 | 0.32 | 0.00 | 90 | 1004.9 |
| 20260507051009 | 51 | 238 | 2.6 | 6.1 | 0.00 | 0.32 | 0.00 | 90 | 1004.5 |
| 20260507050512 | 51 | 0 | 0.0 | 0.0 | 0.00 | 0.32 | 0.00 | 91 | 1004.7 |
| 20260507050031 | 51 | 0 | 0.0 | 5.2 | 0.00 | 0.32 | 0.00 | 91 | 1004.7 |
| 20260507045512 | 51 | 0 | 1.7 | 7.0 | 0.00 | 0.32 | 0.00 | 91 | 1005.0 |
| 20260507045015 | 51 | 239 | 1.7 | 7.0 | 0.00 | 0.32 | 0.00 | 91 | 1005.2 |
| 20260507044532 | 51 | 250 | 1.7 | 7.0 | 0.01 | 0.32 | 0.00 | 91 | 1005.1 |
| 20260507044010 | 51 | 0 | 0.0 | 7.0 | 0.01 | 0.32 | 0.00 | 92 | 1004.9 |
| 20260507043514 | 51 | 0 | 0.0 | 3.5 | 0.01 | 0.32 | 0.00 | 92 | 1004.8 |
| 20260507043029 | 51 | 0 | 0.0 | 5.2 | 0.01 | 0.32 | 0.00 | 92 | 1004.9 |
| 20260507042512 | 52 | 0 | 0.9 | 5.2 | 0.01 | 0.32 | 0.00 | 92 | 1004.8 |
| 20260507042014 | 52 | 0 | 0.0 | 5.2 | 0.01 | 0.32 | 0.00 | 92 | 1004.9 |
| 20260507041530 | 52 | 0 | 0.9 | 5.2 | 0.01 | 0.32 | 0.00 | 92 | 1004.8 |
| 20260507041010 | 53 | 0 | 0.0 | 4.3 | 0.01 | 0.32 | 0.00 | 92 | 1004.8 |
| 20260507040510 | 53 | 0 | 0.0 | 4.3 | 0.01 | 0.32 | 0.00 | 92 | 1004.6 |
| 20260507040032 | 54 | 0 | 0.0 | 5.2 | 0.01 | 0.32 | 0.00 | 93 | 1004.6 |
| 20260507035512 | 54 | 281 | 1.7 | 5.2 | 0.01 | 0.32 | 0.32 | 93 | 1004.4 |
| 20260507035010 | 54 | 0 | 1.7 | 5.2 | 0.01 | 0.32 | 0.32 | 93 | 1004.5 |
| 20260507034535 | 55 | 0 | 0.0 | 0.0 | 0.00 | 0.31 | 0.31 | 93 | 1004.7 |
| 20260507034012 | 55 | 0 | 0.0 | 0.0 | 0.00 | 0.31 | 0.31 | 93 | 1004.5 |
| 20260507033511 | 55 | 0 | 0.0 | 5.2 | 0.00 | 0.31 | 0.31 | 93 | 1004.6 |
| 20260507033034 | 56 | 0 | 0.0 | 7.8 | 0.01 | 0.31 | 0.31 | 93 | 1004.6 |
| 20260507032516 | 56 | 0 | 3.5 | 7.8 | 0.01 | 0.31 | 0.31 | 93 | 1004.5 |
| 20260507032014 | 56 | 0 | 0.0 | 6.1 | 0.01 | 0.31 | 0.31 | 94 | 1004.6 |
| 20260507031529 | 57 | 0 | 0.0 | 6.1 | 0.01 | 0.31 | 0.31 | 94 | 1004.5 |
| 20260507031012 | 57 | 0 | 0.9 | 3.5 | 0.01 | 0.31 | 0.31 | 94 | 1004.5 |
| 20260507030517 | 57 | 283 | 0.0 | 3.5 | 0.01 | 0.31 | 0.31 | 94 | 1004.3 |
| 20260507030030 | 57 | 0 | 0.0 | 5.2 | 0.01 | 0.31 | 0.31 | 94 | 1004.3 |
| 20260507025511 | 58 | 0 | 0.0 | 5.2 | 0.01 | 0.31 | 0.31 | 94 | 1004.3 |
| 20260507025015 | 58 | 332 | 0.9 | 5.2 | 0.01 | 0.31 | 0.31 | 94 | 1004.1 |
| 20260507024532 | 59 | 257 | 0.0 | 5.2 | 0.01 | 0.31 | 0.31 | 94 | 1004.0 |
| 20260507024009 | 59 | 0 | 0.0 | 5.2 | 0.01 | 0.31 | 0.31 | 94 | 1004.0 |
| 20260507023513 | 59 | 294 | 2.6 | 5.2 | 0.01 | 0.31 | 0.31 | 94 | 1004.0 |
| 20260507023030 | 59 | 246 | 0.9 | 5.2 | 0.00 | 0.30 | 0.30 | 94 | 1003.9 |
| 20260507022510 | 59 | 241 | 2.6 | 5.2 | 0.00 | 0.30 | 0.30 | 94 | 1003.9 |
| 20260507022015 | 59 | 237 | 1.7 | 5.2 | 0.00 | 0.30 | 0.30 | 94 | 1003.7 |
| 20260507021530 | 59 | 0 | 0.9 | 5.2 | 0.00 | 0.30 | 0.30 | 94 | 1003.7 |
| 20260507021011 | 59 | 221 | 1.7 | 7.0 | 0.00 | 0.30 | 0.30 | 94 | 1003.8 |
| 20260507020513 | 59 | 193 | 1.7 | 7.0 | 0.00 | 0.30 | 0.30 | 94 | 1003.9 |
| 20260507020045 | 59 | 0 | 0.0 | 7.0 | 0.00 | 0.30 | 0.30 | 94 | 1003.8 |
| 20260507015510 | 59 | 233 | 1.7 | 7.0 | 0.00 | 0.30 | 0.30 | 94 | 1004.0 |
| 20260507015009 | 59 | 198 | 0.9 | 5.2 | 0.00 | 0.30 | 0.30 | 94 | 1003.9 |
| 20260507014534 | 59 | 245 | 0.9 | 8.7 | 0.00 | 0.30 | 0.30 | 94 | 1004.1 |
| 20260507014010 | 59 | 250 | 3.5 | 8.7 | 0.00 | 0.30 | 0.30 | 94 | 1004.1 |
| 20260507013508 | 59 | 225 | 0.9 | 7.0 | 0.00 | 0.30 | 0.30 | 94 | 1004.0 |
| 20260507013029 | 59 | 212 | 2.6 | 7.0 | 0.00 | 0.30 | 0.30 | 94 | 1004.0 |
| 20260507012509 | 59 | 228 | 2.6 | 7.0 | 0.00 | 0.30 | 0.30 | 94 | 1004.0 |
| 20260507012009 | 59 | 195 | 1.7 | 5.2 | 0.00 | 0.30 | 0.30 | 94 | 1004.1 |
| 20260507011541 | 59 | 235 | 1.7 | 5.2 | 0.00 | 0.30 | 0.30 | 94 | 1004.0 |
| 20260507011010 | 59 | 201 | 1.7 | 6.1 | 0.00 | 0.30 | 0.30 | 94 | 1004.0 |
| 20260507010513 | 59 | 269 | 0.9 | 6.1 | 0.00 | 0.30 | 0.30 | 94 | 1004.1 |
| 20260507010034 | 59 | 197 | 1.7 | 6.1 | 0.00 | 0.30 | 0.30 | 94 | 1004.0 |
| 20260507005511 | 59 | 197 | 1.7 | 7.0 | 0.00 | 0.30 | 0.30 | 94 | 1004.0 |
| 20260507005010 | 59 | 196 | 2.6 | 7.0 | 0.00 | 0.30 | 0.30 | 94 | 1004.0 |
| 20260507004531 | 59 | 227 | 1.7 | 5.2 | 0.00 | 0.30 | 0.30 | 94 | 1004.2 |
| 20260507004010 | 59 | 0 | 1.7 | 5.2 | 0.00 | 0.30 | 0.30 | 94 | 1004.0 |
| 20260507003515 | 59 | 249 | 0.0 | 7.0 | 0.00 | 0.30 | 0.30 | 94 | 1004.1 |
| 20260507003030 | 59 | 0 | 2.6 | 7.0 | 0.00 | 0.30 | 0.30 | 94 | 1004.0 |
| 20260507002509 | 59 | 205 | 2.6 | 6.1 | 0.00 | 0.30 | 0.30 | 94 | 1004.1 |
| 20260507002015 | 59 | 193 | 2.6 | 9.6 | 0.00 | 0.30 | 0.30 | 94 | 1003.9 |
| 20260507001602 | 59 | 0 | 1.7 | 9.6 | 0.00 | 0.30 | 0.30 | 94 | 1003.9 |
| 20260507001009 | 59 | 224 | 1.7 | 7.0 | 0.00 | 0.30 | 0.30 | 94 | 1003.9 |
| 20260507000514 | 59 | 182 | 2.6 | 7.0 | 0.00 | 0.30 | 0.30 | 94 | 1003.9 |
| 20260507000040 | 59 | 0 | 2.6 | 7.0 | 0.00 | 0.30 | 0.30 | 94 | 1003.9 |
| 20260506235511 | 59 | 256 | 3.5 | 7.0 | 0.00 | 0.30 | 0.30 | 94 | 1003.9 |
| 20260506235014 | 59 | 255 | 2.6 | 7.0 | 0.00 | 0.30 | 0.30 | 94 | 1003.8 |
| 20260506234531 | 59 | 196 | 1.7 | 9.6 | 0.00 | 0.30 | 0.30 | 94 | 1003.8 |
| 20260506234010 | 59 | 271 | 3.5 | 9.6 | 0.00 | 0.30 | 0.30 | 94 | 1003.8 |
| 20260506233510 | 59 | 191 | 2.6 | 9.6 | 0.00 | 0.30 | 0.30 | 94 | 1003.9 |
| 20260506233030 | 59 | 190 | 2.6 | 9.6 | 0.00 | 0.30 | 0.30 | 94 | 1003.8 |
| 20260506232510 | 59 | 194 | 5.2 | 9.6 | 0.00 | 0.30 | 0.30 | 94 | 1003.9 |
| 20260506232012 | 59 | 249 | 1.7 | 8.7 | 0.00 | 0.30 | 0.30 | 94 | 1003.9 |
| 20260506231531 | 59 | 205 | 1.7 | 7.8 | 0.00 | 0.30 | 0.30 | 94 | 1004.0 |
| 20260506231009 | 59 | 196 | 4.3 | 7.8 | 0.00 | 0.30 | 0.30 | 94 | 1003.9 |
| 20260506230517 | 59 | 201 | 1.7 | 7.8 | 0.00 | 0.30 | 0.30 | 94 | 1003.9 |
| 20260506230047 | 59 | 0 | 3.5 | 7.8 | 0.00 | 0.30 | 0.30 | 94 | 1003.9 |
| 20260506225509 | 59 | 172 | 2.6 | 8.7 | 0.01 | 0.30 | 0.30 | 94 | 1003.9 |
| 20260506225013 | 59 | 200 | 3.5 | 11.3 | 0.01 | 0.30 | 0.30 | 94 | 1003.9 |
| 20260506224530 | 59 | 234 | 5.2 | 13.0 | 0.01 | 0.30 | 0.30 | 94 | 1004.0 |
| 20260506224011 | 59 | 251 | 5.2 | 13.0 | 0.01 | 0.30 | 0.30 | 94 | 1004.1 |
| 20260506223512 | 59 | 195 | 2.6 | 10.4 | 0.02 | 0.30 | 0.30 | 94 | 1004.1 |
| 20260506223033 | 59 | 191 | 4.3 | 10.4 | 0.02 | 0.30 | 0.30 | 93 | 1004.2 |
| 20260506222513 | 59 | 193 | 4.3 | 9.6 | 0.02 | 0.30 | 0.30 | 93 | 1004.3 |
| 20260506222011 | 60 | 200 | 3.5 | 13.9 | 0.03 | 0.30 | 0.30 | 94 | 1004.3 |
| 20260506221530 | 60 | 202 | 5.2 | 13.9 | 0.03 | 0.30 | 0.30 | 94 | 1004.4 |
| 20260506221009 | 60 | 224 | 3.5 | 12.2 | 0.03 | 0.30 | 0.30 | 93 | 1004.4 |
| 20260506220510 | 60 | 206 | 5.2 | 12.2 | 0.03 | 0.30 | 0.30 | 93 | 1004.4 |
| 20260506220035 | 60 | 203 | 6.1 | 11.3 | 0.04 | 0.30 | 0.30 | 93 | 1004.4 |
| 20260506215510 | 60 | 200 | 3.5 | 13.0 | 0.03 | 0.29 | 0.29 | 93 | 1004.5 |
| 20260506215011 | 60 | 207 | 5.2 | 13.0 | 0.03 | 0.29 | 0.29 | 93 | 1004.5 |
| 20260506214529 | 60 | 213 | 6.1 | 13.0 | 0.04 | 0.29 | 0.29 | 93 | 1004.5 |
| 20260506214010 | 61 | 194 | 5.2 | 12.2 | 0.04 | 0.29 | 0.29 | 93 | 1004.5 |
| 20260506213515 | 61 | 186 | 2.6 | 8.7 | 0.03 | 0.28 | 0.28 | 93 | 1004.5 |
| 20260506213028 | 61 | 184 | 4.3 | 9.6 | 0.04 | 0.28 | 0.28 | 93 | 1004.6 |
| 20260506212508 | 61 | 192 | 4.3 | 10.4 | 0.04 | 0.27 | 0.27 | 93 | 1004.5 |
| 20260506212017 | 61 | 198 | 3.5 | 13.0 | 0.04 | 0.27 | 0.27 | 93 | 1004.7 |
| 20260506211530 | 61 | 199 | 2.6 | 13.0 | 0.05 | 0.27 | 0.27 | 93 | 1004.7 |